sensor_id;sensor_type;location;lat;lon;timestamp;pressure;altitude;pressure_sealevel;temperature;humidity
35989;BME280;22064;42.672;23.282;2023-03-16T00:02:11;93838.41;;;1.44;100.00
35989;BME280;22064;42.672;23.282;2023-03-16T00:04:38;93823.47;;;1.34;100.00
35989;BME280;22064;42.672;23.282;2023-03-16T00:07:08;93838.59;;;1.43;100.00
35989;BME280;22064;42.672;23.282;2023-03-16T00:09:35;93831.78;;;1.23;100.00
35989;BME280;22064;42.672;23.282;2023-03-16T00:12:13;93847.75;;;1.32;100.00
35989;BME280;22064;42.672;23.282;2023-03-16T00:14:42;93847.56;;;1.27;100.00
35989;BME280;22064;42.672;23.282;2023-03-16T00:17:12;93844.63;;;1.17;100.00
35989;BME280;22064;42.672;23.282;2023-03-16T00:19:46;93857.28;;;1.11;100.00
35989;BME280;22064;42.672;23.282;2023-03-16T00:22:14;93857.69;;;1.08;100.00
35989;BME280;22064;42.672;23.282;2023-03-16T00:24:41;93854.13;;;1.09;100.00
35989;BME280;22064;42.672;23.282;2023-03-16T00:27:11;93859.66;;;1.00;100.00
35989;BME280;22064;42.672;23.282;2023-03-16T00:29:44;93851.97;;;1.00;100.00
35989;BME280;22064;42.672;23.282;2023-03-16T00:32:19;93859.06;;;1.11;100.00
35989;BME280;22064;42.672;23.282;2023-03-16T00:34:46;93863.81;;;1.07;100.00
35989;BME280;22064;42.672;23.282;2023-03-16T00:37:14;93853.19;;;0.97;100.00
35989;BME280;22064;42.672;23.282;2023-03-16T00:39:42;93860.47;;;1.00;100.00
35989;BME280;22064;42.672;23.282;2023-03-16T00:42:13;93858.72;;;0.94;100.00
35989;BME280;22064;42.672;23.282;2023-03-16T00:44:39;93863.66;;;0.89;100.00
35989;BME280;22064;42.672;23.282;2023-03-16T00:47:09;93868.38;;;0.92;100.00
35989;BME280;22064;42.672;23.282;2023-03-16T00:49:40;93875.88;;;0.87;100.00
35989;BME280;22064;42.672;23.282;2023-03-16T00:52:08;93870.16;;;0.91;100.00
35989;BME280;22064;42.672;23.282;2023-03-16T00:54:34;93871.34;;;0.89;100.00
35989;BME280;22064;42.672;23.282;2023-03-16T00:57:01;93880.44;;;0.85;100.00
35989;BME280;22064;42.672;23.282;2023-03-16T00:59:28;93874.13;;;0.74;100.00
35989;BME280;22064;42.672;23.282;2023-03-16T01:01:55;93871.19;;;0.57;100.00
35989;BME280;22064;42.672;23.282;2023-03-16T01:04:21;93871.38;;;0.69;100.00
35989;BME280;22064;42.672;23.282;2023-03-16T01:06:48;93866.47;;;0.54;100.00
35989;BME280;22064;42.672;23.282;2023-03-16T01:09:14;93864.50;;;0.56;100.00
35989;BME280;22064;42.672;23.282;2023-03-16T01:11:40;93875.91;;;0.60;100.00
35989;BME280;22064;42.672;23.282;2023-03-16T01:14:10;93873.97;;;0.62;100.00
35989;BME280;22064;42.672;23.282;2023-03-16T01:16:36;93871.78;;;0.59;100.00
35989;BME280;22064;42.672;23.282;2023-03-16T01:19:02;93876.31;;;0.57;100.00
35989;BME280;22064;42.672;23.282;2023-03-16T01:21:28;93873.34;;;0.60;100.00
35989;BME280;22064;42.672;23.282;2023-03-16T01:23:54;93870.19;;;0.65;100.00
35989;BME280;22064;42.672;23.282;2023-03-16T01:26:20;93862.13;;;0.55;100.00
35989;BME280;22064;42.672;23.282;2023-03-16T01:28:47;93877.69;;;0.60;100.00
35989;BME280;22064;42.672;23.282;2023-03-16T01:31:14;93865.69;;;0.54;100.00
35989;BME280;22064;42.672;23.282;2023-03-16T01:33:41;93884.78;;;0.64;100.00
35989;BME280;22064;42.672;23.282;2023-03-16T01:36:12;93877.31;;;0.43;100.00
35989;BME280;22064;42.672;23.282;2023-03-16T01:38:45;93885.59;;;0.45;100.00
35989;BME280;22064;42.672;23.282;2023-03-16T01:41:12;93888.16;;;0.45;100.00
35989;BME280;22064;42.672;23.282;2023-03-16T01:43:39;93890.72;;;0.45;100.00
35989;BME280;22064;42.672;23.282;2023-03-16T01:51:15;93892.66;;;0.43;100.00
35989;BME280;22064;42.672;23.282;2023-03-16T01:53:48;93887.75;;;0.35;100.00
35989;BME280;22064;42.672;23.282;2023-03-16T01:56:16;93896.63;;;0.39;100.00
35989;BME280;22064;42.672;23.282;2023-03-16T01:58:43;93886.38;;;0.39;100.00
35989;BME280;22064;42.672;23.282;2023-03-16T02:01:11;93890.88;;;0.37;100.00
35989;BME280;22064;42.672;23.282;2023-03-16T02:03:40;93894.84;;;0.46;100.00
35989;BME280;22064;42.672;23.282;2023-03-16T02:06:20;93907.47;;;0.48;100.00
35989;BME280;22064;42.672;23.282;2023-03-16T02:08:52;93913.38;;;0.35;100.00
35989;BME280;22064;42.672;23.282;2023-03-16T02:11:21;93904.09;;;0.27;100.00
35989;BME280;22064;42.672;23.282;2023-03-16T02:14:06;93926.97;;;0.35;100.00
35989;BME280;22064;42.672;23.282;2023-03-16T02:16:34;93910.59;;;0.36;100.00
35989;BME280;22064;42.672;23.282;2023-03-16T02:18:59;93923.22;;;0.31;100.00
35989;BME280;22064;42.672;23.282;2023-03-16T02:21:53;93924.19;;;0.30;100.00
35989;BME280;22064;42.672;23.282;2023-03-16T02:24:22;93928.91;;;0.20;100.00
35989;BME280;22064;42.672;23.282;2023-03-16T02:26:52;93921.22;;;0.13;100.00
35989;BME280;22064;42.672;23.282;2023-03-16T02:29:29;93929.28;;;0.10;100.00
35989;BME280;22064;42.672;23.282;2023-03-16T02:31:57;93931.66;;;0.18;100.00
35989;BME280;22064;42.672;23.282;2023-03-16T02:34:25;93922.56;;;0.09;100.00
35989;BME280;22064;42.672;23.282;2023-03-16T02:36:53;93932.03;;;0.15;100.00
35989;BME280;22064;42.672;23.282;2023-03-16T02:39:23;93937.53;;;0.12;100.00
35989;BME280;22064;42.672;23.282;2023-03-16T02:41:49;93932.22;;;0.01;100.00
35989;BME280;22064;42.672;23.282;2023-03-16T02:44:22;93928.91;;;0.07;100.00
35989;BME280;22064;42.672;23.282;2023-03-16T02:46:53;93941.84;;;-0.08;100.00
35989;BME280;22064;42.672;23.282;2023-03-16T02:49:35;93940.84;;;-0.07;100.00
35989;BME280;22064;42.672;23.282;2023-03-16T02:52:03;93941.25;;;-0.10;100.00
35989;BME280;22064;42.672;23.282;2023-03-16T02:54:30;93946.59;;;-0.05;100.00
35989;BME280;22064;42.672;23.282;2023-03-16T02:56:56;93942.41;;;-0.13;100.00
35989;BME280;22064;42.672;23.282;2023-03-16T02:59:23;93942.41;;;-0.13;100.00
35989;BME280;22064;42.672;23.282;2023-03-16T03:01:49;93951.31;;;-0.09;100.00
35989;BME280;22064;42.672;23.282;2023-03-16T03:04:16;93949.53;;;-0.08;100.00
35989;BME280;22064;42.672;23.282;2023-03-16T03:06:42;93952.31;;;-0.03;100.00
35989;BME280;22064;42.672;23.282;2023-03-16T03:09:09;93957.41;;;-0.03;100.00
35989;BME280;22064;42.672;23.282;2023-03-16T03:11:38;93952.88;;;-0.08;100.00
35989;BME280;22064;42.672;23.282;2023-03-16T03:14:04;93963.88;;;-0.07;100.00
35989;BME280;22064;42.672;23.282;2023-03-16T03:16:31;93968.59;;;-0.11;100.00
35989;BME280;22064;42.672;23.282;2023-03-16T03:18:57;93977.47;;;-0.07;100.00
35989;BME280;22064;42.672;23.282;2023-03-16T03:21:24;93978.44;;;-0.14;100.00
35989;BME280;22064;42.672;23.282;2023-03-16T03:23:50;93974.91;;;-0.13;100.00
35989;BME280;22064;42.672;23.282;2023-03-16T03:26:17;93980.22;;;-0.08;100.00
35989;BME280;22064;42.672;23.282;2023-03-16T03:28:44;93998.09;;;-0.21;100.00
35989;BME280;22064;42.672;23.282;2023-03-16T03:31:15;93995.72;;;-0.23;100.00
35989;BME280;22064;42.672;23.282;2023-03-16T03:33:42;93986.47;;;-0.24;100.00
35989;BME280;22064;42.672;23.282;2023-03-16T03:36:09;93979.34;;;-0.29;100.00
35989;BME280;22064;42.672;23.282;2023-03-16T03:38:37;93988.84;;;-0.22;100.00
35989;BME280;22064;42.672;23.282;2023-03-16T03:41:05;93980.53;;;-0.31;100.00
35989;BME280;22064;42.672;23.282;2023-03-16T03:43:36;93982.91;;;-0.30;100.00
35989;BME280;22064;42.672;23.282;2023-03-16T03:46:03;94000.28;;;-0.18;100.00
35989;BME280;22064;42.672;23.282;2023-03-16T03:48:31;94000.06;;;-0.17;100.00
35989;BME280;22064;42.672;23.282;2023-03-16T03:50:59;93979.81;;;-0.18;100.00
35989;BME280;22064;42.672;23.282;2023-03-16T03:53:37;93997.91;;;-0.13;100.00
35989;BME280;22064;42.672;23.282;2023-03-16T03:56:25;94006.00;;;-0.10;100.00
35989;BME280;22064;42.672;23.282;2023-03-16T03:58:51;94014.66;;;-0.11;100.00
35989;BME280;22064;42.672;23.282;2023-03-16T04:01:33;94017.25;;;-0.04;100.00
35989;BME280;22064;42.672;23.282;2023-03-16T04:03:59;94006.34;;;-0.19;100.00
35989;BME280;22064;42.672;23.282;2023-03-16T04:06:25;94017.59;;;-0.20;100.00
35989;BME280;22064;42.672;23.282;2023-03-16T04:08:51;94016.41;;;-0.25;100.00
35989;BME280;22064;42.672;23.282;2023-03-16T04:11:21;94013.47;;;-0.15;100.00
35989;BME280;22064;42.672;23.282;2023-03-16T04:13:50;94029.78;;;-0.16;100.00
35989;BME280;22064;42.672;23.282;2023-03-16T04:16:19;94009.94;;;-0.14;100.00
35989;BME280;22064;42.672;23.282;2023-03-16T04:18:47;94014.50;;;-0.09;100.00
35989;BME280;22064;42.672;23.282;2023-03-16T04:21:15;94014.50;;;-0.09;100.00
35989;BME280;22064;42.672;23.282;2023-03-16T04:23:43;94023.72;;;-0.15;100.00
35989;BME280;22064;42.672;23.282;2023-03-16T04:26:09;94021.56;;;-0.11;100.00
35989;BME280;22064;42.672;23.282;2023-03-16T04:28:35;94022.16;;;-0.09;100.00
35989;BME280;22064;42.672;23.282;2023-03-16T04:31:03;94033.97;;;-0.08;100.00
35989;BME280;22064;42.672;23.282;2023-03-16T04:33:37;94028.06;;;-0.15;100.00
35989;BME280;22064;42.672;23.282;2023-03-16T04:36:05;94035.94;;;-0.10;100.00
35989;BME280;22064;42.672;23.282;2023-03-16T04:38:32;94042.22;;;-0.13;100.00
35989;BME280;22064;42.672;23.282;2023-03-16T04:41:01;94039.25;;;-0.16;100.00
35989;BME280;22064;42.672;23.282;2023-03-16T04:43:32;94054.22;;;-0.13;100.00
35989;BME280;22064;42.672;23.282;2023-03-16T04:46:04;94056.34;;;-0.24;100.00
35989;BME280;22064;42.672;23.282;2023-03-16T04:48:31;94052.03;;;-0.16;100.00
35989;BME280;22064;42.672;23.282;2023-03-16T04:50:58;94060.69;;;-0.17;100.00
35989;BME280;22064;42.672;23.282;2023-03-16T04:53:29;94043.78;;;-0.18;100.00
35989;BME280;22064;42.672;23.282;2023-03-16T04:56:00;94073.28;;;-0.16;100.00
35989;BME280;22064;42.672;23.282;2023-03-16T04:58:26;94067.56;;;-0.25;100.00
35989;BME280;22064;42.672;23.282;2023-03-16T05:00:54;94069.75;;;-0.21;100.00
35989;BME280;22064;42.672;23.282;2023-03-16T05:03:24;94078.00;;;-0.19;100.00
35989;BME280;22064;42.672;23.282;2023-03-16T05:05:51;94075.28;;;-0.18;100.00
35989;BME280;22064;42.672;23.282;2023-03-16T05:08:17;94083.50;;;-0.22;100.00
35989;BME280;22064;42.672;23.282;2023-03-16T05:10:46;94074.03;;;-0.29;100.00
35989;BME280;22064;42.672;23.282;2023-03-16T05:13:13;94080.53;;;-0.26;100.00
35989;BME280;22064;42.672;23.282;2023-03-16T05:15:40;94075.63;;;-0.28;100.00
35989;BME280;22064;42.672;23.282;2023-03-16T05:18:26;94081.31;;;-0.26;100.00
35989;BME280;22064;42.672;23.282;2023-03-16T05:20:53;94088.25;;;-0.19;100.00
35989;BME280;22064;42.672;23.282;2023-03-16T05:23:21;94092.97;;;-0.16;100.00
35989;BME280;22064;42.672;23.282;2023-03-16T05:25:53;94105.38;;;-0.20;100.00
35989;BME280;22064;42.672;23.282;2023-03-16T05:28:22;94091.41;;;-0.17;100.00
35989;BME280;22064;42.672;23.282;2023-03-16T05:30:58;94100.06;;;-0.18;100.00
35989;BME280;22064;42.672;23.282;2023-03-16T05:33:26;94107.94;;;-0.20;100.00
35989;BME280;22064;42.672;23.282;2023-03-16T05:35:59;94102.66;;;-0.12;100.00
35989;BME280;22064;42.672;23.282;2023-03-16T05:38:27;94102.09;;;-0.07;100.00
35989;BME280;22064;42.672;23.282;2023-03-16T05:40:54;94104.22;;;-0.11;100.00
35989;BME280;22064;42.672;23.282;2023-03-16T05:43:40;94109.13;;;-0.16;100.00
35989;BME280;22064;42.672;23.282;2023-03-16T05:46:06;94110.59;;;-0.35;100.00
35989;BME280;22064;42.672;23.282;2023-03-16T05:48:33;94117.75;;;-0.24;100.00
35989;BME280;22064;42.672;23.282;2023-03-16T05:51:04;94131.91;;;-0.28;100.00
35989;BME280;22064;42.672;23.282;2023-03-16T05:53:31;94138.38;;;-0.25;100.00
35989;BME280;22064;42.672;23.282;2023-03-16T05:56:05;94133.06;;;-0.30;100.00
35989;BME280;22064;42.672;23.282;2023-03-16T05:58:33;94126.22;;;-0.23;100.00
35989;BME280;22064;42.672;23.282;2023-03-16T06:00:59;94133.44;;;-0.33;100.00
35989;BME280;22064;42.672;23.282;2023-03-16T06:03:30;94144.91;;;-0.22;100.00
35989;BME280;22064;42.672;23.282;2023-03-16T06:05:58;94140.19;;;-0.19;100.00
35989;BME280;22064;42.672;23.282;2023-03-16T06:08:41;94140.31;;;-0.06;100.00
35989;BME280;22064;42.672;23.282;2023-03-16T06:11:10;94111.06;;;-0.25;100.00
35989;BME280;22064;42.672;23.282;2023-03-16T06:13:37;94147.34;;;-0.14;100.00
35989;BME280;22064;42.672;23.282;2023-03-16T06:16:03;94150.91;;;-0.09;100.00
35989;BME280;22064;42.672;23.282;2023-03-16T06:18:33;94158.38;;;-0.07;100.00
35989;BME280;22064;42.672;23.282;2023-03-16T06:20:59;94154.31;;;0.05;100.00
35989;BME280;22064;42.672;23.282;2023-03-16T06:23:26;94157.63;;;-0.01;100.00
35989;BME280;22064;42.672;23.282;2023-03-16T06:25:53;94156.47;;;0.02;100.00
35989;BME280;22064;42.672;23.282;2023-03-16T06:28:25;94155.34;;;0.11;100.00
35989;BME280;22064;42.672;23.282;2023-03-16T06:30:55;94163.81;;;0.11;100.00
35989;BME280;22064;42.672;23.282;2023-03-16T06:33:25;94151.69;;;-0.08;100.00
35989;BME280;22064;42.672;23.282;2023-03-16T06:35:51;94127.84;;;-0.15;100.00
35989;BME280;22064;42.672;23.282;2023-03-16T06:38:26;94175.59;;;0.06;100.00
35989;BME280;22064;42.672;23.282;2023-03-16T06:40:58;94182.66;;;-0.03;100.00
35989;BME280;22064;42.672;23.282;2023-03-16T06:43:25;94176.63;;;0.11;100.00
35989;BME280;22064;42.672;23.282;2023-03-16T06:45:51;94182.09;;;0.08;100.00
35989;BME280;22064;42.672;23.282;2023-03-16T06:48:18;94195.28;;;0.05;100.00
35989;BME280;22064;42.672;23.282;2023-03-16T06:50:44;94199.63;;;0.05;100.00
35989;BME280;22064;42.672;23.282;2023-03-16T06:53:11;94207.09;;;0.06;100.00
35989;BME280;22064;42.672;23.282;2023-03-16T06:55:38;94195.56;;;0.17;100.00
35989;BME280;22064;42.672;23.282;2023-03-16T06:58:04;94212.97;;;0.28;100.00
35989;BME280;22064;42.672;23.282;2023-03-16T07:00:30;94202.88;;;0.20;100.00
35989;BME280;22064;42.672;23.282;2023-03-16T07:02:59;94208.50;;;0.09;100.00
35989;BME280;22064;42.672;23.282;2023-03-16T07:05:28;94196.66;;;0.01;100.00
35989;BME280;22064;42.672;23.282;2023-03-16T07:07:54;94214.56;;;0.01;100.00
35989;BME280;22064;42.672;23.282;2023-03-16T07:10:20;94220.16;;;0.18;100.00
35989;BME280;22064;42.672;23.282;2023-03-16T07:12:46;94216.97;;;0.09;100.00
35989;BME280;22064;42.672;23.282;2023-03-16T07:15:12;94222.56;;;0.19;100.00
35989;BME280;22064;42.672;23.282;2023-03-16T07:17:39;94228.03;;;0.10;100.00
35989;BME280;22064;42.672;23.282;2023-03-16T07:20:06;94231.84;;;0.27;100.00
35989;BME280;22064;42.672;23.282;2023-03-16T07:22:36;94233.34;;;0.15;100.00
35989;BME280;22064;42.672;23.282;2023-03-16T07:25:05;94231.00;;;0.13;100.00
35989;BME280;22064;42.672;23.282;2023-03-16T07:27:32;94235.69;;;0.10;100.00
35989;BME280;22064;42.672;23.282;2023-03-16T07:30:00;94224.91;;;0.21;100.00
35989;BME280;22064;42.672;23.282;2023-03-16T07:32:27;94239.69;;;0.19;100.00
35989;BME280;22064;42.672;23.282;2023-03-16T07:34:52;94239.94;;;0.31;100.00
35989;BME280;22064;42.672;23.282;2023-03-16T07:37:18;94246.09;;;0.36;100.00
35989;BME280;22064;42.672;23.282;2023-03-16T07:39:46;94244.22;;;0.52;100.00
35989;BME280;22064;42.672;23.282;2023-03-16T07:42:17;94229.69;;;0.31;100.00
35989;BME280;22064;42.672;23.282;2023-03-16T07:44:55;94234.38;;;0.55;100.00
35989;BME280;22064;42.672;23.282;2023-03-16T07:47:20;94244.22;;;0.52;100.00
35989;BME280;22064;42.672;23.282;2023-03-16T07:49:49;94257.78;;;0.45;100.00
35989;BME280;22064;42.672;23.282;2023-03-16T07:52:17;94250.84;;;0.39;100.00
35989;BME280;22064;42.672;23.282;2023-03-16T07:54:43;94257.59;;;0.47;100.00
35989;BME280;22064;42.672;23.282;2023-03-16T07:57:10;94266.72;;;0.56;100.00
35989;BME280;22064;42.672;23.282;2023-03-16T07:59:43;94249.66;;;0.42;100.00
35989;BME280;22064;42.672;23.282;2023-03-16T08:02:17;94265.28;;;0.47;100.00
35989;BME280;22064;42.672;23.282;2023-03-16T08:04:45;94256.47;;;0.56;100.00
35989;BME280;22064;42.672;23.282;2023-03-16T08:07:13;94262.34;;;0.50;100.00
35989;BME280;22064;42.672;23.282;2023-03-16T08:09:51;94254.41;;;0.45;100.00
35989;BME280;22064;42.672;23.282;2023-03-16T08:12:22;94251.44;;;0.41;100.00
35989;BME280;22064;42.672;23.282;2023-03-16T08:14:48;94262.84;;;0.39;100.00
35989;BME280;22064;42.672;23.282;2023-03-16T08:17:23;94250.41;;;0.71;100.00
35989;BME280;22064;42.672;23.282;2023-03-16T08:19:49;94267.47;;;0.50;100.00
35989;BME280;22064;42.672;23.282;2023-03-16T08:22:15;94257.59;;;0.47;100.00
35989;BME280;22064;42.672;23.282;2023-03-16T08:24:44;94276.97;;;0.56;100.00
35989;BME280;22064;42.672;23.282;2023-03-16T08:27:11;94279.34;;;0.64;100.00
35989;BME280;22064;42.672;23.282;2023-03-16T08:29:41;94284.84;;;0.61;100.00
35989;BME280;22064;42.672;23.282;2023-03-16T08:32:11;94281.31;;;0.62;100.00
35989;BME280;22064;42.672;23.282;2023-03-16T08:34:41;94285.66;;;0.68;100.00
35989;BME280;22064;42.672;23.282;2023-03-16T08:37:08;94273.53;;;0.84;100.00
35989;BME280;22064;42.672;23.282;2023-03-16T08:39:35;94266.00;;;0.69;100.00
35989;BME280;22064;42.672;23.282;2023-03-16T08:42:05;94284.00;;;0.89;100.00
35989;BME280;22064;42.672;23.282;2023-03-16T08:44:39;94281.88;;;0.99;100.00
35989;BME280;22064;42.672;23.282;2023-03-16T08:47:06;94284.25;;;0.94;100.00
35989;BME280;22064;42.672;23.282;2023-03-16T08:49:33;94295.31;;;1.01;100.00
35989;BME280;22064;42.672;23.282;2023-03-16T08:52:07;94304.03;;;1.13;100.00
35989;BME280;22064;42.672;23.282;2023-03-16T08:54:35;94306.63;;;1.20;100.00
35989;BME280;22064;42.672;23.282;2023-03-16T08:57:01;94297.53;;;1.18;100.00
35989;BME280;22064;42.672;23.282;2023-03-16T08:59:27;94306.63;;;1.27;100.00
35989;BME280;22064;42.672;23.282;2023-03-16T09:01:53;94282.25;;;0.96;100.00
35989;BME280;22064;42.672;23.282;2023-03-16T09:04:19;94299.91;;;1.19;100.00
35989;BME280;22064;42.672;23.282;2023-03-16T09:06:47;94306.44;;;1.22;100.00
35989;BME280;22064;42.672;23.282;2023-03-16T09:09:15;94297.53;;;1.18;100.00
35989;BME280;22064;42.672;23.282;2023-03-16T09:11:42;94311.19;;;1.25;100.00
35989;BME280;22064;42.672;23.282;2023-03-16T09:14:09;94323.38;;;1.16;100.00
35989;BME280;22064;42.672;23.282;2023-03-16T09:16:36;94312.91;;;1.18;100.00
35989;BME280;22064;42.672;23.282;2023-03-16T09:19:03;94311.97;;;1.25;100.00
35989;BME280;22064;42.672;23.282;2023-03-16T09:21:30;94318.72;;;1.39;100.00
35989;BME280;22064;42.672;23.282;2023-03-16T09:23:56;94319.50;;;1.40;100.00
35989;BME280;22064;42.672;23.282;2023-03-16T09:26:22;94320.72;;;1.51;100.00
35989;BME280;22064;42.672;23.282;2023-03-16T09:28:48;94323.44;;;1.36;100.00
35989;BME280;22064;42.672;23.282;2023-03-16T09:31:16;94313.00;;;1.31;100.00
35989;BME280;22064;42.672;23.282;2023-03-16T09:33:43;94311.00;;;1.33;100.00
35989;BME280;22064;42.672;23.282;2023-03-16T09:36:09;94318.16;;;1.44;100.00
35989;BME280;22064;42.672;23.282;2023-03-16T09:38:39;94308.91;;;1.50;100.00
35989;BME280;22064;42.672;23.282;2023-03-16T09:41:17;94319.56;;;1.60;100.00
35989;BME280;22064;42.672;23.282;2023-03-16T09:44:22;94311.84;;;1.47;100.00
35989;BME280;22064;42.672;23.282;2023-03-16T09:46:44;94317.94;;;1.46;100.00
35989;BME280;22064;42.672;23.282;2023-03-16T09:49:18;94322.69;;;1.42;100.00
35989;BME280;22064;42.672;23.282;2023-03-16T09:52:05;94331.72;;;1.25;100.00
35989;BME280;22064;42.672;23.282;2023-03-16T09:54:47;94325.63;;;1.46;100.00
35989;BME280;22064;42.672;23.282;2023-03-16T09:57:23;94342.00;;;1.38;100.00
35989;BME280;22064;42.672;23.282;2023-03-16T09:59:50;94323.03;;;1.32;100.00
35989;BME280;22064;42.672;23.282;2023-03-16T10:10:20;94323.47;;;1.43;100.00
35989;BME280;22064;42.672;23.282;2023-03-16T10:12:52;94322.28;;;1.45;100.00
35989;BME280;22064;42.672;23.282;2023-03-16T10:15:25;94328.03;;;1.54;100.00
35989;BME280;22064;42.672;23.282;2023-03-16T10:20:30;94323.69;;;1.48;100.00
35989;BME280;22064;42.672;23.282;2023-03-16T10:22:57;94335.59;;;1.62;100.00
35989;BME280;22064;42.672;23.282;2023-03-16T10:25:46;94326.66;;;1.58;100.00
35989;BME280;22064;42.672;23.282;2023-03-16T10:28:15;94326.69;;;1.65;100.00
35989;BME280;22064;42.672;23.282;2023-03-16T10:30:41;94324.34;;;1.70;100.00
35989;BME280;22064;42.672;23.282;2023-03-16T10:33:25;94337.13;;;1.56;100.00
35989;BME280;22064;42.672;23.282;2023-03-16T10:41:29;94335.38;;;1.70;100.00
35989;BME280;22064;42.672;23.282;2023-03-16T10:46:41;94321.16;;;1.74;100.00
35989;BME280;22064;42.672;23.282;2023-03-16T10:51:58;94332.66;;;1.78;100.00
35989;BME280;22064;42.672;23.282;2023-03-16T10:56:50;94322.78;;;1.82;100.00
35989;BME280;22064;42.672;23.282;2023-03-16T10:59:33;94334.63;;;1.90;100.00
35989;BME280;22064;42.672;23.282;2023-03-16T11:02:02;94302.81;;;1.77;100.00
35989;BME280;22064;42.672;23.282;2023-03-16T11:04:31;94337.81;;;1.98;100.00
35989;BME280;22064;42.672;23.282;2023-03-16T11:06:58;94347.13;;;2.06;100.00
35989;BME280;22064;42.672;23.282;2023-03-16T11:09:30;94334.84;;;1.88;100.00
35989;BME280;22064;42.672;23.282;2023-03-16T11:11:58;94341.34;;;1.84;100.00
35989;BME280;22064;42.672;23.282;2023-03-16T11:14:26;94327.53;;;1.85;100.00
35989;BME280;22064;42.672;23.282;2023-03-16T11:17:06;94339.56;;;1.84;100.00
35989;BME280;22064;42.672;23.282;2023-03-16T11:19:40;94328.50;;;1.84;100.00
35989;BME280;22064;42.672;23.282;2023-03-16T11:22:15;94349.41;;;1.74;100.00
35989;BME280;22064;42.672;23.282;2023-03-16T11:27:21;94334.81;;;1.75;100.00
35989;BME280;22064;42.672;23.282;2023-03-16T11:29:57;94348.63;;;1.74;100.00
35989;BME280;22064;42.672;23.282;2023-03-16T11:32:31;94330.69;;;1.87;100.00
35989;BME280;22064;42.672;23.282;2023-03-16T11:34:58;94357.94;;;1.81;100.00
35989;BME280;22064;42.672;23.282;2023-03-16T11:37:38;94337.41;;;1.95;100.00
35989;BME280;22064;42.672;23.282;2023-03-16T11:45:46;94333.66;;;1.91;100.00
35989;BME280;22064;42.672;23.282;2023-03-16T11:48:23;94321.59;;;1.91;100.00
35989;BME280;22064;42.672;23.282;2023-03-16T11:51:10;94345.72;;;1.97;100.00
35989;BME280;22064;42.672;23.282;2023-03-16T11:56:42;94338.56;;;1.79;100.00
35989;BME280;22064;42.672;23.282;2023-03-16T12:16:01;94343.91;;;1.84;100.00
35989;BME280;22064;42.672;23.282;2023-03-16T12:18:50;94373.34;;;1.81;100.00
35989;BME280;22064;42.672;23.282;2023-03-16T12:21:21;94349.59;;;1.73;100.00
35989;BME280;22064;42.672;23.282;2023-03-16T12:23:56;94356.69;;;1.57;100.00
35989;BME280;22064;42.672;23.282;2023-03-16T12:26:26;94368.56;;;1.72;100.00
35989;BME280;22064;42.672;23.282;2023-03-16T12:28:56;94373.66;;;1.58;100.00
35989;BME280;22064;42.672;23.282;2023-03-16T12:31:39;94366.72;;;1.52;100.00
35989;BME280;22064;42.672;23.282;2023-03-16T12:39:37;94385.88;;;1.50;100.00
35989;BME280;22064;42.672;23.282;2023-03-16T12:45:06;94372.78;;;1.38;100.00
35989;BME280;22064;42.672;23.282;2023-03-16T12:50:13;94386.19;;;1.40;100.00
35989;BME280;22064;42.672;23.282;2023-03-16T12:52:45;94396.25;;;1.35;100.00
35989;BME280;22064;42.672;23.282;2023-03-16T12:55:22;94399.69;;;1.14;100.00
35989;BME280;22064;42.672;23.282;2023-03-16T12:57:50;94392.28;;;0.91;100.00
35989;BME280;22064;42.672;23.282;2023-03-16T13:00:32;94410.69;;;0.73;100.00
35989;BME280;22064;42.672;23.282;2023-03-16T13:03:01;94405.91;;;0.63;100.00
35989;BME280;22064;42.672;23.282;2023-03-16T13:05:32;94407.78;;;0.55;100.00
35989;BME280;22064;42.672;23.282;2023-03-16T13:08:14;94396.13;;;0.52;100.00
35989;BME280;22064;42.672;23.282;2023-03-16T13:10:41;94411.03;;;0.63;100.00
35989;BME280;22064;42.672;23.282;2023-03-16T13:13:12;94403.03;;;0.80;100.00
35989;BME280;22064;42.672;23.282;2023-03-16T13:15:41;94415.13;;;0.86;100.00
35989;BME280;22064;42.672;23.282;2023-03-16T13:20:59;94417.88;;;0.84;100.00
35989;BME280;22064;42.672;23.282;2023-03-16T13:23:53;94419.16;;;1.02;100.00
35989;BME280;22064;42.672;23.282;2023-03-16T13:26:31;94410.38;;;1.18;100.00
35989;BME280;22064;42.672;23.282;2023-03-16T13:29:07;94414.94;;;1.22;100.00
35989;BME280;22064;42.672;23.282;2023-03-16T13:31:41;94405.50;;;1.29;100.00
35989;BME280;22064;42.672;23.282;2023-03-16T13:34:13;94420.09;;;1.29;100.00
35989;BME280;22064;42.672;23.282;2023-03-16T13:36:40;94416.41;;;1.38;100.00
35989;BME280;22064;42.672;23.282;2023-03-16T13:39:21;94442.72;;;1.53;100.00
35989;BME280;22064;42.672;23.282;2023-03-16T13:41:58;94404.41;;;1.45;100.00
35989;BME280;22064;42.672;23.282;2023-03-16T13:44:26;94413.50;;;1.48;100.00
35989;BME280;22064;42.672;23.282;2023-03-16T13:46:52;94414.56;;;1.67;100.00
35989;BME280;22064;42.672;23.282;2023-03-16T13:49:18;94422.59;;;1.57;100.00
35989;BME280;22064;42.672;23.282;2023-03-16T13:51:45;94423.78;;;1.54;100.00
35989;BME280;22064;42.672;23.282;2023-03-16T13:54:26;94428.69;;;1.49;100.00
35989;BME280;22064;42.672;23.282;2023-03-16T13:56:56;94416.44;;;1.45;100.00
35989;BME280;22064;42.672;23.282;2023-03-16T13:59:23;94430.81;;;1.39;100.00
35989;BME280;22064;42.672;23.282;2023-03-16T14:01:58;94422.13;;;1.40;100.00
35989;BME280;22064;42.672;23.282;2023-03-16T14:04:31;94417.53;;;1.29;100.00
35989;BME280;22064;42.672;23.282;2023-03-16T14:07:00;94435.47;;;1.22;100.00
35989;BME280;22064;42.672;23.282;2023-03-16T14:09:29;94423.03;;;1.19;100.00
35989;BME280;22064;42.672;23.282;2023-03-16T14:11:56;94439.56;;;1.17;100.00
35989;BME280;22064;42.672;23.282;2023-03-16T14:14:26;94445.44;;;1.10;100.00